createdAt,value
2023-02-01T13:44:58.856Z,55.88
2023-02-01T13:47:28.469Z,58.05
2023-02-01T13:49:57.664Z,58.80
2023-02-01T13:52:26.978Z,58.38
2023-02-01T13:54:55.853Z,62.30
2023-02-01T13:57:24.846Z,62.15
2023-02-01T13:59:53.946Z,62.83
2023-02-01T14:02:23.039Z,62.37
2023-02-01T14:04:52.065Z,62.93
2023-02-01T14:07:21.049Z,62.27
2023-02-01T14:09:49.911Z,63.95
2023-02-01T14:12:18.913Z,63.92
2023-02-01T14:14:48.024Z,64.35
2023-02-01T14:17:17.035Z,62.13
2023-02-01T14:19:46.398Z,63.25
2023-02-01T14:22:15.405Z,66.12
2023-02-01T14:24:44.392Z,64.87
2023-02-01T14:27:13.283Z,63.48
2023-02-01T14:29:42.265Z,77.95
2023-02-01T14:32:11.258Z,72.80
2023-02-01T14:34:40.250Z,69.42
2023-02-01T14:37:09.261Z,69.47
2023-02-01T14:39:38.256Z,67.40
2023-02-01T14:42:07.032Z,67.97
2023-02-01T14:44:36.033Z,70.80
2023-02-01T14:47:05.019Z,73.70
2023-02-01T14:49:33.908Z,71.62
2023-02-01T14:52:03.521Z,70.32
2023-02-01T14:54:32.512Z,66.72
2023-02-01T14:57:01.372Z,65.45
2023-02-01T14:59:30.397Z,64.90
2023-02-01T15:01:59.413Z,64.80
2023-02-01T15:04:28.605Z,64.70
2023-02-01T15:06:57.615Z,66.77
2023-02-01T15:09:26.578Z,65.47
2023-02-01T15:11:55.578Z,65.08
2023-02-01T15:14:24.567Z,66.90
2023-02-01T15:16:53.449Z,68.22
2023-02-01T15:19:22.340Z,63.92
2023-02-01T15:21:51.443Z,65.90
2023-02-01T15:24:20.435Z,64.75
2023-02-01T15:26:49.395Z,64.07
2023-02-01T15:29:18.317Z,63.98
2023-02-01T15:31:47.289Z,64.72
2023-02-01T15:34:18.087Z,64.97
2023-02-01T15:37:01.537Z,62.45
2023-02-01T15:39:16.859Z,64.67
2023-02-01T15:41:45.739Z,64.67
2023-02-01T15:44:14.827Z,63.78
2023-02-01T15:46:43.815Z,65.67
